createdAt,value
2023-05-21T00:00:19.323Z,4.70
2023-05-21T00:01:19.317Z,4.70
2023-05-21T00:02:19.320Z,4.90
2023-05-21T00:03:19.460Z,4.60
2023-05-21T00:04:19.288Z,4.90
2023-05-21T00:05:19.263Z,4.60
2023-05-21T00:06:19.338Z,4.60
2023-05-21T00:07:19.253Z,4.50
2023-05-21T00:08:19.253Z,5.10
2023-05-21T00:09:19.213Z,5.00
2023-05-21T00:10:19.228Z,4.80
2023-05-21T00:11:19.197Z,5.10
2023-05-21T00:12:19.203Z,4.40
2023-05-21T00:13:19.173Z,4.70
2023-05-21T00:14:19.186Z,4.80
2023-05-21T00:15:19.165Z,5.20
2023-05-21T00:16:19.179Z,5.00
2023-05-21T00:17:19.138Z,5.00
2023-05-21T00:18:19.149Z,4.50
2023-05-21T00:19:19.169Z,4.90
2023-05-21T00:20:19.106Z,4.90
2023-05-21T00:21:19.092Z,4.80
2023-05-21T00:22:19.081Z,5.00
2023-05-21T00:23:19.072Z,4.90
2023-05-21T00:24:19.064Z,5.00
2023-05-21T00:25:19.051Z,5.00
2023-05-21T00:26:19.052Z,5.10
2023-05-21T00:27:19.018Z,5.10
2023-05-21T00:28:19.012Z,4.90
2023-05-21T00:29:19.003Z,4.80
2023-05-21T00:30:18.999Z,5.10
2023-05-21T00:31:19.111Z,5.10
2023-05-21T00:32:18.965Z,5.00
2023-05-21T00:33:18.951Z,4.80
2023-05-21T00:34:18.941Z,4.70
2023-05-21T00:35:18.939Z,5.20
2023-05-21T00:36:18.944Z,4.90
2023-05-21T00:37:18.907Z,5.00
2023-05-21T00:38:18.899Z,5.10
2023-05-21T00:39:18.882Z,5.20
2023-05-21T00:40:18.892Z,5.10
2023-05-21T00:41:18.861Z,4.90
2023-05-21T00:42:18.862Z,5.10
2023-05-21T00:43:18.845Z,5.30
2023-05-21T00:44:18.832Z,5.20
2023-05-21T00:45:18.852Z,5.00
2023-05-21T00:46:18.830Z,5.30
2023-05-21T00:47:18.795Z,5.40
2023-05-21T00:48:18.787Z,5.00
2023-05-21T00:49:18.770Z,4.70
2023-05-21T00:50:18.782Z,5.30
2023-05-21T00:51:18.933Z,5.50
2023-05-21T00:52:18.740Z,5.10
2023-05-21T00:53:18.723Z,5.70
2023-05-21T00:54:18.732Z,5.80
2023-05-21T00:55:18.758Z,5.10
2023-05-21T00:56:18.697Z,5.60
2023-05-21T00:57:18.683Z,5.40
2023-05-21T00:58:18.674Z,5.80
2023-05-21T00:59:18.664Z,5.30
2023-05-21T01:00:18.650Z,5.70
2023-05-21T01:01:18.669Z,5.70
2023-05-21T01:02:18.650Z,5.60
2023-05-21T01:03:18.670Z,5.50
2023-05-21T01:04:18.616Z,5.70
2023-05-21T01:05:18.596Z,5.90
2023-05-21T01:06:18.585Z,5.60
2023-05-21T01:07:18.568Z,5.80
2023-05-21T01:08:18.570Z,5.50
2023-05-21T01:09:18.560Z,5.50
2023-05-21T01:10:18.537Z,6.10
2023-05-21T01:11:18.531Z,5.50
2023-05-21T01:12:18.518Z,5.70
2023-05-21T01:13:18.515Z,5.70
2023-05-21T01:14:18.503Z,5.70
2023-05-21T01:15:18.485Z,5.70
2023-05-21T01:16:18.517Z,5.60
2023-05-21T01:17:18.474Z,5.80
2023-05-21T01:18:18.498Z,5.40
2023-05-21T01:19:18.643Z,5.60
2023-05-21T01:20:18.444Z,5.90
2023-05-21T01:21:18.430Z,5.70
2023-05-21T01:22:18.407Z,6.00
2023-05-21T01:23:18.403Z,6.00
2023-05-21T01:24:18.378Z,5.80
2023-05-21T01:25:18.386Z,5.70
2023-05-21T01:26:18.396Z,5.60
2023-05-21T01:27:18.369Z,5.70
2023-05-21T01:28:18.345Z,6.00
2023-05-21T01:29:18.332Z,5.70
2023-05-21T01:30:18.318Z,5.30
2023-05-21T01:31:18.304Z,5.70
2023-05-21T01:32:18.299Z,5.60
2023-05-21T01:33:18.384Z,5.70
2023-05-21T01:34:18.270Z,5.50
2023-05-21T01:35:18.261Z,6.20
2023-05-21T01:36:18.255Z,5.80
2023-05-21T01:37:18.247Z,6.00
2023-05-21T01:38:18.279Z,6.30
2023-05-21T01:39:18.224Z,5.90
2023-05-21T01:40:18.213Z,6.00
2023-05-21T01:41:18.248Z,5.90
2023-05-21T01:42:18.186Z,6.00
2023-05-21T01:43:18.178Z,6.10
2023-05-21T01:44:18.160Z,5.50
2023-05-21T01:45:18.152Z,6.20
2023-05-21T01:46:18.186Z,5.80
2023-05-21T01:47:18.129Z,5.50
2023-05-21T01:48:18.113Z,6.00
2023-05-21T01:49:18.120Z,5.80
2023-05-21T01:50:18.104Z,5.80
2023-05-21T01:51:18.136Z,6.00
2023-05-21T01:52:18.072Z,6.10
2023-05-21T01:53:18.076Z,5.80
2023-05-21T01:54:18.066Z,5.70
2023-05-21T01:55:18.052Z,6.00
2023-05-21T01:56:18.020Z,6.00
2023-05-21T01:57:18.028Z,5.90
2023-05-21T01:58:18.010Z,6.10
2023-05-21T01:59:17.995Z,6.10
2023-05-21T02:00:17.991Z,6.30
2023-05-21T02:01:17.997Z,5.60
2023-05-21T02:02:17.994Z,5.80
2023-05-21T02:03:18.027Z,6.20
2023-05-21T02:04:17.945Z,6.00
2023-05-21T02:05:17.941Z,6.00
2023-05-21T02:06:17.916Z,6.20
2023-05-21T02:07:17.910Z,6.40
2023-05-21T02:08:17.894Z,6.50
2023-05-21T02:09:17.889Z,5.80
2023-05-21T02:10:17.870Z,5.80
2023-05-21T02:11:17.874Z,6.20
2023-05-21T02:12:17.858Z,6.30
2023-05-21T02:13:17.854Z,6.60
2023-05-21T02:14:17.837Z,5.70
2023-05-21T02:15:18.037Z,6.10
2023-05-21T02:16:17.872Z,6.40
2023-05-21T02:17:17.807Z,5.40
2023-05-21T02:18:17.792Z,6.40
2023-05-21T02:19:17.822Z,6.00
2023-05-21T02:20:17.762Z,6.40
2023-05-21T02:21:17.759Z,6.30
2023-05-21T02:22:17.734Z,5.90
2023-05-21T02:23:17.742Z,6.00
2023-05-21T02:24:17.721Z,5.90
2023-05-21T02:25:17.733Z,5.90
2023-05-21T02:26:17.697Z,6.20
2023-05-21T02:27:17.747Z,5.60
2023-05-21T02:28:17.685Z,5.80
2023-05-21T02:29:17.668Z,6.50
2023-05-21T02:30:17.653Z,6.20
2023-05-21T02:31:17.649Z,6.40
2023-05-21T02:32:17.640Z,6.40
2023-05-21T02:33:17.622Z,6.40
2023-05-21T02:34:17.672Z,6.10
2023-05-21T02:35:17.673Z,6.20
2023-05-21T02:36:17.593Z,6.60
2023-05-21T02:37:17.597Z,6.40
2023-05-21T02:38:17.565Z,6.20
2023-05-21T02:39:17.571Z,6.10
2023-05-21T02:40:17.547Z,6.50
2023-05-21T02:41:17.543Z,6.50
2023-05-21T02:42:17.532Z,6.60
2023-05-21T02:43:17.524Z,6.00
2023-05-21T02:44:17.497Z,6.50
2023-05-21T02:45:17.493Z,6.20
2023-05-21T02:46:17.505Z,6.50
2023-05-21T02:47:17.480Z,6.50
2023-05-21T02:48:17.450Z,6.60
2023-05-21T02:49:17.445Z,6.70
2023-05-21T02:50:17.435Z,6.60
2023-05-21T02:51:17.434Z,6.10
2023-05-21T02:52:17.403Z,6.70
2023-05-21T02:53:17.446Z,6.70
2023-05-21T02:54:17.430Z,6.30
2023-05-21T02:55:17.409Z,6.40
2023-05-21T02:56:17.377Z,6.70
2023-05-21T02:57:17.356Z,6.40
2023-05-21T02:58:17.357Z,6.60
2023-05-21T02:59:17.328Z,6.70
2023-05-21T03:00:17.326Z,6.70
2023-05-21T03:01:17.382Z,6.80
2023-05-21T03:02:17.381Z,6.40
2023-05-21T03:03:17.329Z,6.60
2023-05-21T03:04:17.270Z,6.60
2023-05-21T03:05:17.270Z,6.80
2023-05-21T03:06:17.261Z,7.00
2023-05-21T03:07:17.275Z,6.80
2023-05-21T03:08:17.234Z,6.70
2023-05-21T03:09:17.225Z,6.40
2023-05-21T03:10:17.222Z,6.80
2023-05-21T03:11:17.192Z,6.50
2023-05-21T03:12:17.284Z,6.80
2023-05-21T03:13:17.195Z,6.80
2023-05-21T03:14:17.179Z,6.90
2023-05-21T03:15:17.303Z,6.60
2023-05-21T03:16:17.160Z,6.90
2023-05-21T03:17:17.190Z,6.90
2023-05-21T03:18:17.121Z,7.10
2023-05-21T03:19:17.237Z,6.90
2023-05-21T03:20:17.214Z,6.30
2023-05-21T03:21:17.081Z,6.60
2023-05-21T03:22:17.079Z,6.70
2023-05-21T03:23:17.097Z,6.60
2023-05-21T03:24:17.065Z,6.90
2023-05-21T03:25:17.074Z,7.00
2023-05-21T03:26:17.033Z,7.30
2023-05-21T03:27:17.098Z,6.90
2023-05-21T03:28:17.012Z,7.00
2023-05-21T03:29:17.017Z,7.00
2023-05-21T03:30:16.991Z,7.00
2023-05-21T03:31:16.974Z,6.90
2023-05-21T03:32:17.004Z,6.60
2023-05-21T03:33:16.969Z,7.10
2023-05-21T03:34:17.191Z,7.00
2023-05-21T03:35:16.928Z,7.20
2023-05-21T03:36:17.051Z,6.80
2023-05-21T03:37:16.907Z,7.10
2023-05-21T03:38:16.914Z,6.70
2023-05-21T03:39:16.887Z,7.40
2023-05-21T03:40:16.883Z,7.10
2023-05-21T03:41:16.885Z,6.60
2023-05-21T03:42:16.980Z,7.20
2023-05-21T03:43:16.861Z,7.00
2023-05-21T03:44:16.836Z,7.30
2023-05-21T03:45:16.818Z,7.40
2023-05-21T03:46:16.863Z,7.00
2023-05-21T03:47:16.820Z,7.60
2023-05-21T03:48:16.800Z,6.80
2023-05-21T03:49:16.778Z,7.40
2023-05-21T03:50:16.790Z,7.00
2023-05-21T03:51:16.762Z,6.80
2023-05-21T03:52:16.756Z,7.20
2023-05-21T03:53:16.778Z,7.70
2023-05-21T03:54:16.872Z,7.30
2023-05-21T03:55:16.709Z,7.60
2023-05-21T03:56:16.705Z,6.70
2023-05-21T03:57:16.700Z,7.00
2023-05-21T03:58:16.676Z,7.40
2023-05-21T03:59:16.681Z,7.80
2023-05-21T04:00:16.794Z,7.00
2023-05-21T04:01:16.895Z,7.50
2023-05-21T04:02:16.992Z,7.10
2023-05-21T04:03:16.719Z,6.60
2023-05-21T04:04:16.756Z,7.50
2023-05-21T04:05:16.636Z,7.10
2023-05-21T04:06:16.611Z,7.50
2023-05-21T04:07:16.586Z,7.40
2023-05-21T04:08:16.619Z,7.60
2023-05-21T04:09:16.577Z,7.40
2023-05-21T04:10:16.543Z,7.20
2023-05-21T04:11:16.541Z,7.80
2023-05-21T04:12:16.525Z,7.70
2023-05-21T04:13:16.512Z,7.70
2023-05-21T04:14:16.534Z,7.10
2023-05-21T04:15:16.590Z,7.60
2023-05-21T04:16:16.693Z,7.30
2023-05-21T04:17:16.549Z,7.50
2023-05-21T04:18:16.591Z,7.60
2023-05-21T04:19:16.472Z,7.30
2023-05-21T04:20:16.648Z,7.70
2023-05-21T04:21:16.437Z,7.80
2023-05-21T04:22:16.418Z,8.00
2023-05-21T04:23:16.403Z,7.80
2023-05-21T04:24:16.620Z,7.90
2023-05-21T04:25:16.403Z,7.90
2023-05-21T04:26:16.371Z,7.80
2023-05-21T04:27:16.364Z,7.80
2023-05-21T04:28:16.520Z,8.00
2023-05-21T04:29:16.425Z,7.70
2023-05-21T04:30:16.521Z,7.50
2023-05-21T04:31:16.351Z,7.80
2023-05-21T04:32:16.313Z,7.70
2023-05-21T04:33:16.302Z,7.90
2023-05-21T04:34:16.401Z,7.70
2023-05-21T04:35:16.283Z,7.80
2023-05-21T04:36:16.272Z,7.80
2023-05-21T04:37:16.248Z,7.80
2023-05-21T04:38:16.239Z,7.50
2023-05-21T04:39:16.269Z,7.80
2023-05-21T04:40:16.217Z,7.70
2023-05-21T04:41:16.205Z,8.10
2023-05-21T04:42:16.196Z,7.90
2023-05-21T04:43:16.184Z,8.00
2023-05-21T04:44:16.176Z,7.40
2023-05-21T04:45:16.160Z,7.60
2023-05-21T04:46:16.266Z,7.50
2023-05-21T04:47:16.145Z,8.00
2023-05-21T04:48:16.130Z,7.60
2023-05-21T04:49:16.136Z,7.50
2023-05-21T04:50:16.126Z,7.80
2023-05-21T04:51:16.099Z,7.50
2023-05-21T04:52:16.090Z,7.80
2023-05-21T04:53:16.092Z,8.00
2023-05-21T04:54:16.053Z,7.80
2023-05-21T04:55:16.046Z,7.80
2023-05-21T04:56:16.830Z,7.80
2023-05-21T04:57:16.025Z,7.60
2023-05-21T04:58:16.022Z,7.70
2023-05-21T04:59:16.002Z,7.90
2023-05-21T05:00:16.030Z,7.70
2023-05-21T05:01:16.042Z,8.20
2023-05-21T05:02:16.537Z,7.60
2023-05-21T05:03:16.040Z,8.10
2023-05-21T05:04:16.157Z,7.90
2023-05-21T05:05:16.052Z,7.40
2023-05-21T05:06:15.927Z,8.20
2023-05-21T05:07:16.871Z,7.40
2023-05-21T05:08:16.218Z,8.00
2023-05-21T05:09:16.836Z,7.90
2023-05-21T05:10:15.893Z,7.60
2023-05-21T05:11:15.920Z,8.30
2023-05-21T05:12:15.870Z,7.70
2023-05-21T05:13:15.850Z,7.70
2023-05-21T05:14:15.856Z,7.90
2023-05-21T05:15:15.833Z,7.70
2023-05-21T05:16:15.837Z,7.90
2023-05-21T05:17:15.830Z,7.60
2023-05-21T05:18:15.790Z,8.00
2023-05-21T05:19:15.847Z,7.80
2023-05-21T05:20:15.769Z,7.80
2023-05-21T05:21:15.766Z,7.90
2023-05-21T05:22:15.764Z,8.10
2023-05-21T05:23:15.740Z,7.90
2023-05-21T05:24:15.724Z,8.00
2023-05-21T05:25:15.717Z,8.00
2023-05-21T05:26:15.752Z,7.70
2023-05-21T05:27:15.710Z,8.00
2023-05-21T05:28:16.427Z,8.50
2023-05-21T05:29:15.678Z,8.20
2023-05-21T05:30:15.661Z,8.30
2023-05-21T05:31:15.711Z,8.10
2023-05-21T05:32:15.645Z,7.70
2023-05-21T05:33:15.661Z,8.20
2023-05-21T05:34:15.627Z,8.40
2023-05-21T05:35:15.624Z,8.10
2023-05-21T05:36:15.602Z,7.70
2023-05-21T05:37:15.592Z,7.90
2023-05-21T05:38:15.569Z,8.10
2023-05-21T05:39:15.563Z,8.10
2023-05-21T05:40:15.556Z,8.40
2023-05-21T05:41:15.566Z,8.20
2023-05-21T05:42:15.522Z,8.30
2023-05-21T05:43:15.531Z,8.30
2023-05-21T05:44:15.514Z,8.10
2023-05-21T05:45:15.523Z,8.20
2023-05-21T05:46:15.535Z,8.00
2023-05-21T05:47:15.496Z,7.80
2023-05-21T05:48:15.461Z,8.00
2023-05-21T05:49:15.487Z,7.80
2023-05-21T05:50:15.459Z,7.80
2023-05-21T05:51:15.495Z,8.00
2023-05-21T05:52:15.436Z,8.10
2023-05-21T05:53:15.407Z,8.30
2023-05-21T05:54:15.405Z,8.20
2023-05-21T05:55:15.396Z,8.20
2023-05-21T05:56:15.367Z,8.30
2023-05-21T05:57:15.357Z,8.30
2023-05-21T05:58:15.353Z,8.00
2023-05-21T05:59:15.351Z,8.30
2023-05-21T06:00:15.318Z,7.70
2023-05-21T06:01:15.316Z,8.30
2023-05-21T06:02:15.353Z,8.10
2023-05-21T06:03:15.368Z,7.80
2023-05-21T06:04:15.281Z,7.80
2023-05-21T06:05:15.267Z,8.10
2023-05-21T06:06:15.355Z,8.60
2023-05-21T06:07:15.247Z,8.00
2023-05-21T06:08:15.243Z,7.90
2023-05-21T06:09:15.237Z,7.80
2023-05-21T06:10:15.214Z,7.90
2023-05-21T06:11:15.217Z,8.00
2023-05-21T06:12:15.202Z,8.40
2023-05-21T06:13:15.181Z,8.30
2023-05-21T06:14:15.207Z,8.40
2023-05-21T06:15:15.158Z,8.70
2023-05-21T06:16:15.152Z,7.80
2023-05-21T06:17:15.145Z,8.20
2023-05-21T06:18:15.139Z,7.70
2023-05-21T06:19:15.211Z,8.00
2023-05-21T06:20:15.104Z,8.10
2023-05-21T06:21:15.123Z,7.70
2023-05-21T06:22:15.099Z,8.60
2023-05-21T06:23:15.072Z,8.30
2023-05-21T06:24:15.057Z,8.60
2023-05-21T06:25:15.055Z,8.80
2023-05-21T06:26:15.026Z,8.00
2023-05-21T06:27:15.038Z,8.70
2023-05-21T06:28:15.010Z,8.50
2023-05-21T06:29:15.576Z,7.90
2023-05-21T06:30:15.050Z,7.90
2023-05-21T06:31:14.985Z,8.40
2023-05-21T06:32:14.996Z,8.30
2023-05-21T06:33:15.003Z,8.10
2023-05-21T06:34:14.946Z,8.00
2023-05-21T06:35:14.941Z,8.20
2023-05-21T06:36:14.930Z,7.80
2023-05-21T06:37:14.926Z,8.30
2023-05-21T06:38:14.905Z,8.30
2023-05-21T06:39:14.891Z,8.20
2023-05-21T06:40:14.881Z,8.30
2023-05-21T06:41:14.905Z,8.60
2023-05-21T06:42:14.867Z,8.30
2023-05-21T06:43:14.862Z,8.00
2023-05-21T06:44:14.835Z,8.60
2023-05-21T06:45:14.840Z,8.40
2023-05-21T06:46:14.862Z,8.00
2023-05-21T06:47:14.807Z,7.80
2023-05-21T06:48:14.810Z,8.10
2023-05-21T06:49:14.782Z,8.10
2023-05-21T06:50:14.777Z,7.90
2023-05-21T06:51:14.779Z,8.40
2023-05-21T06:52:14.744Z,7.70
2023-05-21T06:53:14.739Z,8.50
2023-05-21T06:54:14.743Z,8.30
2023-05-21T06:55:14.734Z,7.80
2023-05-21T06:56:14.702Z,8.40
2023-05-21T06:57:14.697Z,8.10
2023-05-21T06:58:14.679Z,7.90
2023-05-21T06:59:14.695Z,8.90
2023-05-21T07:00:14.728Z,8.20
2023-05-21T07:01:14.683Z,7.60
2023-05-21T07:02:14.664Z,8.20
2023-05-21T07:03:14.758Z,8.70
2023-05-21T07:04:14.624Z,8.10
2023-05-21T07:05:14.661Z,8.10
2023-05-21T07:06:14.624Z,7.90
2023-05-21T07:07:14.610Z,8.00
2023-05-21T07:08:14.608Z,8.30
2023-05-21T07:09:14.941Z,8.30
2023-05-21T07:10:14.648Z,8.80
2023-05-21T07:11:14.634Z,8.30
2023-05-21T07:12:14.524Z,8.50
2023-05-21T07:13:14.513Z,7.70
2023-05-21T07:14:14.536Z,8.00
2023-05-21T07:15:14.489Z,7.90
2023-05-21T07:16:14.591Z,8.00
2023-05-21T07:17:14.484Z,8.30
2023-05-21T07:18:14.501Z,8.00
2023-05-21T07:19:14.585Z,7.90
2023-05-21T07:20:14.443Z,8.10
2023-05-21T07:21:14.434Z,7.80
2023-05-21T07:22:14.420Z,8.60
2023-05-21T07:23:14.434Z,8.00
2023-05-21T07:24:14.429Z,8.10
2023-05-21T07:25:14.380Z,8.00
2023-05-21T07:26:14.379Z,7.80
2023-05-21T07:27:24.717Z,8.10
2023-05-21T07:28:14.361Z,8.10
2023-05-21T07:29:14.342Z,8.40
2023-05-21T07:30:14.327Z,8.00
2023-05-21T07:31:14.372Z,7.80
2023-05-21T07:32:14.305Z,8.20
2023-05-21T07:33:14.330Z,8.00
2023-05-21T07:34:14.606Z,8.40
2023-05-21T07:35:14.274Z,8.20
2023-05-21T07:36:14.254Z,8.40
2023-05-21T07:37:14.263Z,8.40
2023-05-21T07:38:14.248Z,8.20
2023-05-21T07:39:14.238Z,8.20
2023-05-21T07:40:14.223Z,8.30
2023-05-21T07:41:15.500Z,8.10
2023-05-21T07:42:14.206Z,8.20
2023-05-21T07:43:14.218Z,8.80
2023-05-21T07:44:14.176Z,8.20
2023-05-21T07:45:14.171Z,8.40
2023-05-21T07:46:14.180Z,8.10
2023-05-21T07:47:14.156Z,8.70
2023-05-21T07:48:14.162Z,8.50
2023-05-21T07:49:14.122Z,8.20
2023-05-21T07:50:14.115Z,9.00
2023-05-21T07:51:14.100Z,8.50
2023-05-21T07:52:14.103Z,8.40
2023-05-21T07:53:14.083Z,8.50
2023-05-21T07:54:14.067Z,8.70
2023-05-21T07:55:14.077Z,9.00
2023-05-21T07:56:14.061Z,8.30
2023-05-21T07:57:14.042Z,8.90
2023-05-21T07:58:14.017Z,8.70
2023-05-21T07:59:14.024Z,8.80
2023-05-21T08:00:14.018Z,8.70
2023-05-21T08:01:14.014Z,8.90
2023-05-21T08:02:13.992Z,8.50
2023-05-21T08:03:14.056Z,8.80
2023-05-21T08:04:14.169Z,8.00
2023-05-21T08:05:14.018Z,8.80
2023-05-21T08:06:13.953Z,9.00
2023-05-21T08:07:14.835Z,9.10
2023-05-21T08:08:13.920Z,8.90
2023-05-21T08:09:13.913Z,8.80
2023-05-21T08:10:13.899Z,9.20
2023-05-21T08:11:13.889Z,9.10
2023-05-21T08:12:13.866Z,8.90
2023-05-21T08:13:13.863Z,8.80
2023-05-21T08:14:13.852Z,8.80
2023-05-21T08:15:13.847Z,8.70
2023-05-21T08:16:13.848Z,9.00
2023-05-21T08:17:13.811Z,8.70
2023-05-21T08:18:13.797Z,9.00
2023-05-21T08:19:13.809Z,9.20
2023-05-21T08:20:13.795Z,8.90
2023-05-21T08:21:13.770Z,8.50
2023-05-21T08:22:13.771Z,8.90
2023-05-21T08:23:13.750Z,8.80
2023-05-21T08:24:13.751Z,9.30
2023-05-21T08:25:13.751Z,8.90
2023-05-21T08:26:13.709Z,9.20
2023-05-21T08:27:13.702Z,9.00
2023-05-21T08:28:13.707Z,9.40
2023-05-21T08:29:13.708Z,9.00
2023-05-21T08:30:13.676Z,8.80
2023-05-21T08:31:13.670Z,8.30
2023-05-21T08:32:13.703Z,9.20
2023-05-21T08:33:13.636Z,9.10
2023-05-21T08:34:13.662Z,9.50
2023-05-21T08:35:13.614Z,8.90
2023-05-21T08:36:13.633Z,9.10
2023-05-21T08:37:13.592Z,9.20
2023-05-21T08:38:13.596Z,9.20
2023-05-21T08:39:13.584Z,9.20
2023-05-21T08:40:13.559Z,8.70
2023-05-21T08:41:13.605Z,9.30
2023-05-21T08:42:17.620Z,9.20
2023-05-21T08:43:13.547Z,9.50
2023-05-21T08:44:13.515Z,9.20
2023-05-21T08:45:13.503Z,10.10
2023-05-21T08:46:13.505Z,9.50
2023-05-21T08:47:13.499Z,9.70
2023-05-21T08:48:13.475Z,9.50
2023-05-21T08:49:13.462Z,9.60
2023-05-21T08:50:13.454Z,9.70
2023-05-21T08:51:13.444Z,9.80
2023-05-21T08:52:13.433Z,9.50
2023-05-21T08:53:23.999Z,10.40
2023-05-21T08:54:13.399Z,9.80
2023-05-21T08:55:13.394Z,10.00
2023-05-21T08:56:13.377Z,9.50
2023-05-21T08:57:13.380Z,9.90
2023-05-21T08:58:13.376Z,9.20
2023-05-21T08:59:13.346Z,9.90
2023-05-21T09:00:13.336Z,10.10
2023-05-21T09:01:13.381Z,10.00
2023-05-21T09:02:13.321Z,9.80
2023-05-21T09:03:13.363Z,9.60
2023-05-21T09:05:13.308Z,10.00
2023-05-21T09:06:13.282Z,9.50
2023-05-21T09:07:13.273Z,9.20
2023-05-21T09:08:13.243Z,9.60
2023-05-21T09:09:13.240Z,10.40
2023-05-21T09:10:13.246Z,9.70
2023-05-21T09:11:13.228Z,9.90
2023-05-21T09:12:13.201Z,10.00
2023-05-21T09:13:13.256Z,9.70
2023-05-21T09:14:13.177Z,9.80
2023-05-21T09:15:13.169Z,10.20
2023-05-21T09:16:13.175Z,9.80
2023-05-21T09:17:13.154Z,10.30
2023-05-21T09:18:13.189Z,9.90
2023-05-21T09:19:13.152Z,10.00
2023-05-21T09:20:13.128Z,10.20
2023-05-21T09:21:13.128Z,9.70
2023-05-21T09:22:13.102Z,10.10
2023-05-21T09:23:13.116Z,10.60
2023-05-21T09:24:13.070Z,9.90
2023-05-21T09:25:13.077Z,9.90
2023-05-21T09:26:13.047Z,10.30
2023-05-21T09:27:13.037Z,10.70
2023-05-21T09:28:13.026Z,11.10
2023-05-21T09:29:13.018Z,9.90
2023-05-21T09:30:13.015Z,10.40
2023-05-21T09:31:13.016Z,10.30
2023-05-21T09:32:12.988Z,10.30
2023-05-21T09:33:13.064Z,9.50
2023-05-21T09:34:12.968Z,10.30
2023-05-21T09:35:12.962Z,10.10
2023-05-21T09:36:12.940Z,10.60
2023-05-21T09:37:23.743Z,10.40
2023-05-21T09:38:12.915Z,10.20
2023-05-21T09:39:12.916Z,10.60
2023-05-21T09:40:12.921Z,10.60
2023-05-21T09:41:12.886Z,10.60
2023-05-21T09:42:14.558Z,10.70
2023-05-21T09:43:14.205Z,10.60
2023-05-21T09:44:13.648Z,11.20
2023-05-21T09:45:14.203Z,11.40
2023-05-21T09:46:13.463Z,10.40
2023-05-21T09:47:12.818Z,10.90
2023-05-21T09:48:12.805Z,10.70
2023-05-21T09:49:12.842Z,11.10
2023-05-21T09:50:12.783Z,11.30
2023-05-21T09:51:12.781Z,11.50
2023-05-21T09:52:12.756Z,10.70
2023-05-21T09:53:12.794Z,11.00
2023-05-21T09:54:12.756Z,11.50
2023-05-21T09:55:12.731Z,11.10
2023-05-21T09:56:12.715Z,12.10
2023-05-21T09:57:12.707Z,11.70
2023-05-21T09:58:12.716Z,11.20
2023-05-21T09:59:12.694Z,11.60
2023-05-21T10:00:12.684Z,11.60
2023-05-21T10:01:12.666Z,11.40
2023-05-21T10:02:12.678Z,11.20
2023-05-21T10:03:12.712Z,11.80
2023-05-21T10:04:12.672Z,12.10
2023-05-21T10:05:12.693Z,11.70
2023-05-21T10:06:12.628Z,11.50
2023-05-21T10:07:12.599Z,11.70
2023-05-21T10:08:12.621Z,11.80
2023-05-21T10:09:12.581Z,11.80
2023-05-21T10:10:12.576Z,11.90
2023-05-21T10:11:12.552Z,12.30
2023-05-21T10:12:12.573Z,12.10
2023-05-21T10:13:12.575Z,12.00
2023-05-21T10:14:12.530Z,11.90
2023-05-21T10:15:12.507Z,12.60
2023-05-21T10:16:12.512Z,13.00
2023-05-21T10:17:12.490Z,12.10
2023-05-21T10:18:12.521Z,12.00
2023-05-21T10:19:12.484Z,11.60
2023-05-21T10:20:12.464Z,12.10
2023-05-21T10:21:12.441Z,12.10
2023-05-21T10:22:12.450Z,12.30
2023-05-21T10:23:12.421Z,12.30
2023-05-21T10:24:12.416Z,11.40
2023-05-21T10:25:12.398Z,11.60
2023-05-21T10:26:12.435Z,12.40
2023-05-21T10:27:12.388Z,11.80
2023-05-21T10:28:12.370Z,11.90
2023-05-21T10:29:12.355Z,11.80
2023-05-21T10:30:12.347Z,12.20
2023-05-21T10:31:12.343Z,11.50
2023-05-21T10:32:12.356Z,12.40
2023-05-21T10:33:12.350Z,13.40
2023-05-21T10:34:12.311Z,12.00
2023-05-21T10:35:12.290Z,11.90
2023-05-21T10:36:12.310Z,12.60
2023-05-21T10:37:12.266Z,13.00
2023-05-21T10:38:12.261Z,12.00
2023-05-21T10:39:12.250Z,12.00
2023-05-21T10:40:12.242Z,13.30
2023-05-21T10:41:12.239Z,12.10
2023-05-21T10:42:12.216Z,12.70
2023-05-21T10:43:12.194Z,12.40
2023-05-21T10:44:12.206Z,11.80
2023-05-21T10:45:12.191Z,13.60
2023-05-21T10:46:12.311Z,13.20
2023-05-21T10:47:12.159Z,13.50
2023-05-21T10:48:12.198Z,13.10
2023-05-21T10:49:12.134Z,13.00
2023-05-21T10:50:12.150Z,13.10
2023-05-21T10:51:12.114Z,13.60
2023-05-21T10:52:12.112Z,13.50
2023-05-21T10:53:12.092Z,13.10
2023-05-21T10:54:12.127Z,13.00
2023-05-21T10:55:12.076Z,13.50
2023-05-21T10:56:12.064Z,13.20
2023-05-21T10:57:12.055Z,13.00
2023-05-21T10:58:12.067Z,13.20
2023-05-21T10:59:12.034Z,13.50
2023-05-21T11:00:12.017Z,12.60
2023-05-21T11:01:12.034Z,13.10
2023-05-21T11:02:12.010Z,13.40
2023-05-21T11:03:12.095Z,12.90
2023-05-21T11:04:11.982Z,13.70
2023-05-21T11:05:11.969Z,13.00
2023-05-21T11:06:11.952Z,13.70
2023-05-21T11:07:11.935Z,13.50
2023-05-21T11:08:11.928Z,12.60
2023-05-21T11:09:11.922Z,13.10
2023-05-21T11:10:11.923Z,11.80
2023-05-21T11:11:11.890Z,13.10
2023-05-21T11:12:11.887Z,13.20
2023-05-21T11:13:11.877Z,13.20
2023-05-21T11:14:11.877Z,13.30
2023-05-21T11:15:11.861Z,13.50
2023-05-21T11:16:11.845Z,13.00
2023-05-21T11:17:11.915Z,12.10
2023-05-21T11:18:11.905Z,12.70
2023-05-21T11:19:11.871Z,13.10
2023-05-21T11:20:11.817Z,11.90
2023-05-21T11:21:11.780Z,12.30
2023-05-21T11:22:11.775Z,13.60
2023-05-21T11:23:11.772Z,13.30
2023-05-21T11:24:11.785Z,13.00
2023-05-21T11:25:11.736Z,12.20
2023-05-21T11:26:11.742Z,12.20
2023-05-21T11:27:11.714Z,12.40
2023-05-21T11:28:11.735Z,12.40
2023-05-21T11:29:11.706Z,13.20
2023-05-21T11:30:11.681Z,11.90
2023-05-21T11:31:11.705Z,12.20
2023-05-21T11:32:11.670Z,12.80
2023-05-21T11:33:11.702Z,13.50
2023-05-21T11:34:11.648Z,13.20
2023-05-21T11:35:11.630Z,13.20
2023-05-21T11:36:11.635Z,12.30
2023-05-21T11:37:11.620Z,13.00
2023-05-21T11:38:11.597Z,13.20
2023-05-21T11:39:11.597Z,13.50
2023-05-21T11:40:11.585Z,13.50
2023-05-21T11:41:11.560Z,13.20
2023-05-21T11:42:11.564Z,13.00
2023-05-21T11:43:11.567Z,13.20
2023-05-21T11:44:11.522Z,13.40
2023-05-21T11:45:11.519Z,13.20
2023-05-21T11:46:11.582Z,12.80
2023-05-21T11:47:11.506Z,13.70
2023-05-21T11:48:11.505Z,12.90
2023-05-21T11:49:11.470Z,13.10
2023-05-21T11:50:11.465Z,12.50
2023-05-21T11:51:11.462Z,12.30
2023-05-21T11:52:11.458Z,13.40
2023-05-21T11:53:11.434Z,13.40
2023-05-21T11:54:11.422Z,12.80
2023-05-21T11:55:11.405Z,12.80
2023-05-21T11:56:11.415Z,13.70
2023-05-21T11:57:11.388Z,12.90
2023-05-21T11:58:11.397Z,12.70
2023-05-21T11:59:11.369Z,12.70
2023-05-21T12:00:11.361Z,13.30
2023-05-21T12:01:11.346Z,13.00
2023-05-21T12:02:11.333Z,13.10
2023-05-21T12:03:11.382Z,12.60
2023-05-21T12:04:11.334Z,13.10
2023-05-21T12:05:13.156Z,13.30
2023-05-21T12:06:11.353Z,13.60
2023-05-21T12:07:11.284Z,13.10
2023-05-21T12:08:11.312Z,12.90
2023-05-21T12:09:11.253Z,13.30
2023-05-21T12:10:11.257Z,13.50
2023-05-21T12:11:11.240Z,13.60
2023-05-21T12:12:11.219Z,12.50
2023-05-21T12:13:11.208Z,13.20
2023-05-21T12:14:11.273Z,13.10
2023-05-21T12:15:11.847Z,13.50
2023-05-21T12:16:11.199Z,12.80
2023-05-21T12:17:11.172Z,12.80
2023-05-21T12:18:11.163Z,13.00
2023-05-21T12:19:11.159Z,14.50
2023-05-21T12:20:11.144Z,12.70
2023-05-21T12:21:12.538Z,13.60
2023-05-21T12:22:11.102Z,13.10
2023-05-21T12:23:11.097Z,13.60
2023-05-21T12:24:11.097Z,12.70
2023-05-21T12:25:11.082Z,13.40
2023-05-21T12:26:11.056Z,13.50
2023-05-21T12:27:11.051Z,14.20
2023-05-21T12:28:11.035Z,12.80
2023-05-21T12:29:11.046Z,12.60
2023-05-21T12:30:11.103Z,13.20
2023-05-21T12:31:11.016Z,13.10
2023-05-21T12:32:11.039Z,13.00
2023-05-21T12:33:11.034Z,12.10
2023-05-21T12:34:10.989Z,12.50
2023-05-21T12:35:10.983Z,12.60
2023-05-21T12:36:10.951Z,12.80
2023-05-21T12:37:10.945Z,12.70
2023-05-21T12:38:10.925Z,11.60
2023-05-21T12:39:11.419Z,12.90
2023-05-21T12:40:11.062Z,12.20
2023-05-21T12:41:10.899Z,12.70
2023-05-21T12:42:10.888Z,12.60
2023-05-21T12:43:10.889Z,13.00
2023-05-21T12:44:10.871Z,13.30
2023-05-21T12:45:10.854Z,13.00
2023-05-21T12:46:10.872Z,12.70
2023-05-21T12:47:10.834Z,12.90
2023-05-21T12:48:10.930Z,12.50
2023-05-21T12:49:10.822Z,12.60
2023-05-21T12:50:10.845Z,12.70
2023-05-21T12:51:10.793Z,12.90
2023-05-21T12:52:10.777Z,13.40
2023-05-21T12:53:10.789Z,12.60
2023-05-21T12:54:10.759Z,13.40
2023-05-21T12:55:10.763Z,12.60
2023-05-21T12:56:10.736Z,13.20
2023-05-21T12:57:10.741Z,13.80
2023-05-21T12:58:10.717Z,13.20
2023-05-21T12:59:10.708Z,13.70
2023-05-21T13:00:10.838Z,13.00
2023-05-21T13:01:10.705Z,13.40
2023-05-21T13:02:10.676Z,13.40
2023-05-21T13:03:10.705Z,13.20
2023-05-21T13:04:10.686Z,13.60
2023-05-21T13:05:10.645Z,13.80
2023-05-21T13:06:10.632Z,12.50
2023-05-21T13:07:10.624Z,12.30
2023-05-21T13:08:10.698Z,12.80
2023-05-21T13:09:10.588Z,12.70
2023-05-21T13:10:10.582Z,13.00
2023-05-21T13:11:10.581Z,12.70